Time;durP1;ratioP1;P1;durP2;ratioP2;P2;SDS_P1;SDS_P2;PMS_P1;PMS_P2;Temp;Humidity;BMP_temperature;BMP_pressure;BME280_temperature;BME280_humidity;BME280_pressure;Samples;Min_cycle;Max_cycle;Signal;HPM_P1;HPM_P2
2021/07/17 00:00:47;;;;;;;12.13;6.87;;;;;;;;;;5007689;28;20197;-75
2021/07/17 00:03:14;;;;;;;11.27;7.37;;;;;;;;;;5015131;28;20291;-74
2021/07/17 00:05:41;;;;;;;13.63;7.90;;;;;;;;;;5011607;28;20303;-75
2021/07/17 00:08:10;;;;;;;11.10;7.57;;;;;;;;;;5013085;28;20686;-75
2021/07/17 00:10:39;;;;;;;11.23;6.67;;;;;;;;;;5014951;28;20207;-74
2021/07/17 00:13:07;;;;;;;13.20;6.57;;;;;;;;;;5012342;28;20296;-75
2021/07/17 00:15:35;;;;;;;9.93;6.90;;;;;;;;;;5014833;28;20232;-75
2021/07/17 00:18:03;;;;;;;10.50;6.97;;;;;;;;;;5013651;28;20292;-74
2021/07/17 00:20:31;;;;;;;13.03;7.13;;;;;;;;;;4995534;28;20638;-74
2021/07/17 00:22:58;;;;;;;14.17;7.17;;;;;;;;;;4995357;28;20676;-74
2021/07/17 00:25:26;;;;;;;12.87;7.17;;;;;;;;;;4995146;28;20747;-74
2021/07/17 00:27:54;;;;;;;13.40;7.07;;;;;;;;;;4995195;28;20237;-75
2021/07/17 00:30:21;;;;;;;11.23;7.10;;;;;;;;;;5012332;28;20212;-75
2021/07/17 00:32:51;;;;;;;13.23;7.40;;;;;;;;;;5014677;28;20676;-75
2021/07/17 00:35:20;;;;;;;13.80;7.47;;;;;;;;;;5015105;28;20231;-75
2021/07/17 00:37:47;;;;;;;13.03;7.67;;;;;;;;;;5014878;28;20208;-75
2021/07/17 00:40:19;;;;;;;14.30;7.93;;;;;;;;;;5011816;28;20295;-75
2021/07/17 00:42:47;;;;;;;14.40;7.47;;;;;;;;;;5014812;28;20205;-74
2021/07/17 00:45:14;;;;;;;10.43;6.83;;;;;;;;;;5006660;28;20306;-75
2021/07/17 00:47:42;;;;;;;11.20;6.80;;;;;;;;;;4994758;28;20298;-74
2021/07/17 00:50:10;;;;;;;13.47;7.13;;;;;;;;;;5002224;28;20232;-75
2021/07/17 00:52:41;;;;;;;12.20;6.67;;;;;;;;;;5014226;28;20293;-74
2021/07/17 00:55:09;;;;;;;12.27;7.10;;;;;;;;;;5013701;28;20739;-74
2021/07/17 00:57:37;;;;;;;11.97;7.53;;;;;;;;;;5014342;28;20322;-75
2021/07/17 01:00:05;;;;;;;12.20;7.27;;;;;;;;;;5001096;28;20312;-75
2021/07/17 01:02:36;;;;;;;12.97;7.23;;;;;;;;;;5005703;28;20294;-75
2021/07/17 01:05:05;;;;;;;12.40;7.27;;;;;;;;;;5013391;28;20226;-75
2021/07/17 01:07:33;;;;;;;12.90;7.03;;;;;;;;;;5014104;28;20300;-74
2021/07/17 01:10:01;;;;;;;10.10;6.43;;;;;;;;;;5013138;28;20802;-74
2021/07/17 01:12:28;;;;;;;11.43;6.97;;;;;;;;;;5013799;28;20371;-74
2021/07/17 01:14:57;;;;;;;12.87;7.13;;;;;;;;;;5014144;28;20283;-74
2021/07/17 01:17:26;;;;;;;12.17;7.27;;;;;;;;;;5013199;28;20201;-74
2021/07/17 01:19:53;;;;;;;12.93;7.87;;;;;;;;;;5013067;28;20239;-75
2021/07/17 01:22:24;;;;;;;12.00;6.90;;;;;;;;;;4994153;28;20997;-74
2021/07/17 01:24:51;;;;;;;11.10;6.57;;;;;;;;;;4993567;28;20811;-75
2021/07/17 01:27:19;;;;;;;17.20;7.60;;;;;;;;;;5000714;28;20247;-75
2021/07/17 01:29:49;;;;;;;12.47;7.30;;;;;;;;;;5010286;28;20318;-75
2021/07/17 01:32:18;;;;;;;12.87;8.13;;;;;;;;;;5011580;28;20288;-75
2021/07/17 01:34:48;;;;;;;13.80;7.57;;;;;;;;;;5012625;28;20729;-74
2021/07/17 01:37:15;;;;;;;16.40;7.70;;;;;;;;;;5012960;28;20262;-74
2021/07/17 01:39:46;;;;;;;13.97;7.10;;;;;;;;;;4997985;28;20210;-74
2021/07/17 01:42:13;;;;;;;12.40;7.93;;;;;;;;;;4993353;28;20230;-75
2021/07/17 01:44:45;;;;;;;13.63;7.93;;;;;;;;;;4993868;28;20318;-74
2021/07/17 01:47:13;;;;;;;14.33;7.67;;;;;;;;;;4993686;28;20208;-75
2021/07/17 01:49:42;;;;;;;11.30;7.57;;;;;;;;;;4996971;28;20291;-75
2021/07/17 01:52:10;;;;;;;12.63;7.57;;;;;;;;;;4992858;28;20207;-74
2021/07/17 01:54:41;;;;;;;12.07;7.13;;;;;;;;;;4993872;28;20317;-74
2021/07/17 01:57:10;;;;;;;15.50;7.67;;;;;;;;;;4993708;28;20208;-74
2021/07/17 01:59:40;;;;;;;10.80;7.93;;;;;;;;;;4993596;28;20635;-75
2021/07/17 02:02:09;;;;;;;14.53;8.47;;;;;;;;;;4993256;28;20296;-75
2021/07/17 02:04:39;;;;;;;16.87;7.67;;;;;;;;;;4994549;28;20297;-74
2021/07/17 02:07:08;;;;;;;14.47;8.23;;;;;;;;;;5002391;28;20698;-75
2021/07/17 02:09:38;;;;;;;13.37;8.47;;;;;;;;;;5012396;28;20272;-74
2021/07/17 02:12:07;;;;;;;12.67;8.63;;;;;;;;;;4997843;28;20298;-74
2021/07/17 02:14:39;;;;;;;14.67;8.00;;;;;;;;;;4994721;28;20302;-74
2021/07/17 02:17:09;;;;;;;14.90;7.77;;;;;;;;;;4993344;28;20223;-74
2021/07/17 02:19:38;;;;;;;16.30;8.63;;;;;;;;;;4992855;28;20238;-74
2021/07/17 02:22:07;;;;;;;11.70;7.97;;;;;;;;;;5008866;28;20227;-74
2021/07/17 02:24:36;;;;;;;12.50;7.93;;;;;;;;;;5012380;28;20243;-74
2021/07/17 02:27:06;;;;;;;14.73;8.60;;;;;;;;;;5012106;28;20215;-74
2021/07/17 02:29:35;;;;;;;14.63;8.00;;;;;;;;;;5012262;28;20290;-74
2021/07/17 02:32:06;;;;;;;11.77;7.93;;;;;;;;;;5008917;28;20237;-74
2021/07/17 02:34:35;;;;;;;19.57;8.43;;;;;;;;;;4999731;28;20614;-75
2021/07/17 02:37:04;;;;;;;15.47;8.63;;;;;;;;;;4993976;28;20228;-74
2021/07/17 02:39:33;;;;;;;17.47;8.30;;;;;;;;;;5007970;28;20238;-74
2021/07/17 02:42:03;;;;;;;15.27;8.77;;;;;;;;;;4998236;28;20285;-75
2021/07/17 02:44:32;;;;;;;16.17;9.17;;;;;;;;;;4999122;28;20288;-74
2021/07/17 02:47:01;;;;;;;13.93;8.47;;;;;;;;;;5012091;28;20281;-74
2021/07/17 02:49:32;;;;;;;16.87;8.57;;;;;;;;;;5008550;28;20196;-74
2021/07/17 02:52:01;;;;;;;15.30;8.87;;;;;;;;;;4991923;28;20280;-74
2021/07/17 02:54:30;;;;;;;14.57;9.27;;;;;;;;;;5006154;28;20297;-74
2021/07/17 02:56:59;;;;;;;14.33;8.27;;;;;;;;;;4992551;28;20259;-74
2021/07/17 02:59:28;;;;;;;17.10;8.47;;;;;;;;;;4999237;28;20294;-75
2021/07/17 03:01:57;;;;;;;15.87;8.63;;;;;;;;;;5011244;28;20296;-75
2021/07/17 03:04:26;;;;;;;17.40;8.63;;;;;;;;;;5011752;28;20291;-74
2021/07/17 03:06:57;;;;;;;13.13;8.43;;;;;;;;;;5011982;28;20299;-74
2021/07/17 03:09:26;;;;;;;14.27;9.03;;;;;;;;;;5011850;28;20244;-75
2021/07/17 03:11:55;;;;;;;12.43;9.13;;;;;;;;;;5011809;28;20298;-74
2021/07/17 03:14:24;;;;;;;16.03;8.27;;;;;;;;;;5011438;28;20244;-74
2021/07/17 03:16:54;;;;;;;10.90;7.77;;;;;;;;;;5011035;28;20235;-75
2021/07/17 03:19:23;;;;;;;13.17;8.60;;;;;;;;;;5010475;28;20247;-75
2021/07/17 03:21:52;;;;;;;13.07;7.90;;;;;;;;;;5011002;28;20323;-75
2021/07/17 03:24:23;;;;;;;15.60;8.23;;;;;;;;;;5011709;28;20284;-74
2021/07/17 03:26:52;;;;;;;16.27;8.43;;;;;;;;;;5011652;28;20304;-74
2021/07/17 03:29:21;;;;;;;14.10;9.00;;;;;;;;;;5011009;28;20288;-74
2021/07/17 03:31:50;;;;;;;14.40;9.07;;;;;;;;;;5011631;28;20240;-75
2021/07/17 03:34:20;;;;;;;18.80;8.73;;;;;;;;;;5011574;28;20228;-74
2021/07/17 03:36:49;;;;;;;16.27;8.87;;;;;;;;;;5001683;28;20348;-74
2021/07/17 03:39:20;;;;;;;14.70;9.30;;;10.30;99.90;;;;;;5009938;28;20324;-74
2021/07/17 03:41:48;;;;;;;12.67;8.60;;;10.30;99.90;;;;;;5010745;28;20293;-74
2021/07/17 03:44:18;;;;;;;16.17;8.60;;;10.30;99.90;;;;;;5011906;28;20288;-74
2021/07/17 03:46:47;;;;;;;14.67;8.87;;;10.30;99.90;;;;;;5011603;28;20714;-75
2021/07/17 03:49:16;;;;;;;15.83;8.97;;;10.30;99.90;;;;;;5011205;28;20665;-74
2021/07/17 03:51:45;;;;;;;15.37;8.43;;;10.20;99.90;;;;;;5010026;28;20288;-74
2021/07/17 03:54:15;;;;;;;22.50;10.40;;;10.20;99.90;;;;;;5007669;28;20240;-74
2021/07/17 03:56:44;;;;;;;18.33;10.37;;;;;;;;;;5011606;28;20221;-74
2021/07/17 03:59:13;;;;;;;18.87;10.77;;;10.30;99.90;;;;;;5011616;28;20288;-74
2021/07/17 04:01:42;;;;;;;19.37;11.10;;;10.40;99.90;;;;;;5011715;28;20292;-74
2021/07/17 04:04:12;;;;;;;19.30;11.13;;;;;;;;;;5011557;28;20704;-75
2021/07/17 04:06:41;;;;;;;23.67;11.27;;;;;;;;;;5014964;28;20204;-74
2021/07/17 04:09:09;;;;;;;20.50;11.37;;;;;;;;;;5012362;28;20243;-74
2021/07/17 04:11:38;;;;;;;19.47;11.23;;;;;;;;;;5015057;28;20311;-74
2021/07/17 04:14:07;;;;;;;21.93;12.13;;;;;;;;;;5007367;28;20230;-74
2021/07/17 04:16:35;;;;;;;22.63;11.63;;;;;;;;;;5012285;28;20240;-74
2021/07/17 04:19:03;;;;;;;24.37;11.57;;;;;;;;;;5014390;28;20692;-74
2021/07/17 04:21:31;;;;;;;19.73;11.73;;;;;;;;;;5014669;28;20736;-74
2021/07/17 04:23:59;;;;;;;19.93;11.83;;;;;;;;;;5009255;28;20622;-74
2021/07/17 04:26:27;;;;;;;23.90;11.70;;;;;;;;;;5005332;28;20289;-74
2021/07/17 04:28:55;;;;;;;21.50;11.80;;;;;;;;;;4999885;28;20285;-74
2021/07/17 04:31:25;;;;;;;26.27;11.97;;;;;;;;;;5014307;28;20717;-75
2021/07/17 04:33:53;;;;;;;20.87;12.13;;;;;;;;;;5002833;28;20245;-74
2021/07/17 04:36:21;;;;;;;20.80;11.80;;;;;;;;;;4994911;28;20234;-74
2021/07/17 04:38:49;;;;;;;25.97;12.57;;;;;;;;;;4994839;28;20747;-75
2021/07/17 04:41:17;;;;;;;21.17;11.30;;;;;;;;;;4994941;28;20356;-74
2021/07/17 04:43:45;;;;;;;20.33;10.97;;;;;;;;;;5010119;28;20323;-74
2021/07/17 04:46:13;;;;;;;26.07;12.43;;;;;;;;;;5014281;28;20233;-74
2021/07/17 04:48:43;;;;;;;20.37;11.17;;;;;;;;;;5014528;28;20291;-75
2021/07/17 04:51:11;;;;;;;23.93;11.63;;;;;;;;;;5014398;28;20288;-74
2021/07/17 04:53:39;;;;;;;23.17;12.57;;;;;;;;;;5014299;28;20288;-74
2021/07/17 04:56:07;;;;;;;23.50;11.13;;;;;;;;;;5014230;28;20606;-74
2021/07/17 04:58:35;;;;;;;20.83;12.17;;;;;;;;;;5014076;28;20661;-74
2021/07/17 05:01:04;;;;;;;21.03;11.33;;;;;;;;;;5013009;28;20291;-74
2021/07/17 05:03:32;;;;;;;17.67;11.57;;;;;;;;;;5010428;28;20583;-74
2021/07/17 05:06:02;;;;;;;20.53;12.63;;;;;;;;;;5014040;28;20253;-74
2021/07/17 05:08:30;;;;;;;22.20;12.20;;;;;;;;;;5013832;28;20321;-75
2021/07/17 05:10:58;;;;;;;22.27;12.67;;;;;;;;;;5013867;28;20253;-74
2021/07/17 05:13:27;;;;;;;20.30;11.90;;;;;;;;;;5013589;28;20294;-74
2021/07/17 05:15:55;;;;;;;24.97;12.30;;;;;;;;;;5010856;28;20289;-74
2021/07/17 05:18:23;;;;;;;23.40;12.30;;;;;;;;;;4994406;28;20329;-74
2021/07/17 05:20:52;;;;;;;22.83;12.70;;;;;;;;;;5012746;28;20228;-74
2021/07/17 05:23:21;;;;;;;25.70;12.70;;;;;;;;;;5013986;28;20249;-74
2021/07/17 05:25:51;;;;;;;21.03;12.03;;;11.70;99.90;;;;;;5013756;28;20291;-74
2021/07/17 05:28:21;;;;;;;18.57;11.80;;;11.80;99.90;;;;;;5013749;28;20675;-74
2021/07/17 05:30:49;;;;;;;24.27;12.20;;;;;;;;;;5004756;28;20204;-75
2021/07/17 05:33:18;;;;;;;21.43;11.83;;;12.20;99.90;;;;;;4994022;28;20293;-75
2021/07/17 05:35:47;;;;;;;21.23;12.47;;;;;;;;;;5007562;28;20235;-75
2021/07/17 05:38:17;;;;;;;20.17;11.70;;;;;;;;;;4994093;28;20312;-75
2021/07/17 05:40:48;;;;;;;16.33;10.77;;;;;;;;;;4993652;28;20292;-74
2021/07/17 05:43:17;;;;;;;15.90;10.90;;;;;;;;;;4995350;28;20202;-74
2021/07/17 05:45:49;;;;;;;14.33;10.60;;;;;;;;;;4999313;28;20241;-74
2021/07/17 05:48:18;;;;;;;21.60;10.03;;;;;;;;;;4993832;28;20285;-75
2021/07/17 05:50:48;;;;;;;17.03;9.73;;;;;;;;;;4993267;28;20649;-75
2021/07/17 05:53:18;;;;;;;15.10;9.80;;;;;;;;;;4993528;28;20202;-75
2021/07/17 05:55:49;;;;;;;15.20;9.43;;;;;;;;;;4993708;28;20241;-74
2021/07/17 05:58:18;;;;;;;15.73;9.97;;;;;;;;;;4993525;28;20261;-75
2021/07/17 06:00:48;;;;;;;15.33;9.00;;;;;;;;;;4993001;28;20206;-75
2021/07/17 06:03:17;;;;;;;15.60;9.27;;;;;;;;;;5012559;28;20244;-75
2021/07/17 06:05:47;;;;;;;13.77;8.80;;;;;;;;;;5013164;28;20201;-75
2021/07/17 06:08:17;;;;;;;12.65;8.20;;;;;;;;;;5012820;28;20241;-75
2021/07/17 06:10:46;;;;;;;13.82;8.25;;;;;;;;;;5012807;28;20288;-75
2021/07/17 06:13:15;;;;;;;18.70;9.85;;;;;;;;;;5012632;28;20288;-75
2021/07/17 06:15:42;;;;;;;13.77;8.77;;;;;;;;;;5012898;28;20291;-75
2021/07/17 06:18:09;;;;;;;13.68;9.13;;;;;;;;;;5012081;28;20315;-75
2021/07/17 06:20:37;;;;;;;13.90;9.18;;;;;;;;;;4994985;28;20292;-75
2021/07/17 06:23:04;;;;;;;13.13;9.13;;;;;;;;;;4993222;28;20293;-75
2021/07/17 06:25:31;;;;;;;14.93;9.35;;;;;;;;;;4993250;28;20280;-74
2021/07/17 06:27:59;;;;;;;12.73;9.48;;;;;;;;;;4992581;28;20285;-75
2021/07/17 06:30:27;;;;;;;14.00;8.82;;;;;;;;;;5002829;28;20229;-74
2021/07/17 06:32:54;;;;;;;14.65;8.70;;;;;;;;;;5007939;28;20288;-75
2021/07/17 06:35:22;;;;;;;14.70;9.60;;;;;;;;;;5012276;28;20645;-75
2021/07/17 06:37:49;;;;;;;14.05;8.43;;;;;;;;;;5012415;28;20280;-75
2021/07/17 06:40:17;;;;;;;10.27;7.82;;;;;;;;;;5012142;28;20324;-75
2021/07/17 06:42:47;;;;;;;12.80;8.45;;;;;;;;;;5012100;28;20284;-74
2021/07/17 06:45:15;;;;;;;11.48;7.63;;;;;;;;;;5011727;28;20731;-74
2021/07/17 06:47:43;;;;;;;14.27;7.93;;;;;;;;;;5011884;28;20286;-75
2021/07/17 06:50:11;;;;;;;12.70;8.00;;;;;;;;;;5012239;28;20284;-75
2021/07/17 06:52:39;;;;;;;9.27;7.80;;;;;;;;;;5012263;28;20204;-75
2021/07/17 06:55:08;;;;;;;11.00;7.00;;;;;;;;;;5012081;28;20201;-75
2021/07/17 06:57:37;;;;;;;11.43;7.97;;;;;;;;;;5011630;28;20243;-76
2021/07/17 07:00:05;;;;;;;11.25;8.02;;;;;;;;;;5012075;28;20286;-75
2021/07/17 07:02:32;;;;;;;12.57;7.57;;;;;;;;;;5000959;28;20240;-75
2021/07/17 07:05:01;;;;;;;12.15;7.68;;;;;;;;;;4993760;28;20293;-74
2021/07/17 07:07:28;;;;;;;9.13;6.95;;;;;;;;;;4992067;28;20284;-75
2021/07/17 07:09:56;;;;;;;10.95;7.15;;;;;;;;;;4992164;28;20230;-76
2021/07/17 07:12:23;;;;;;;10.82;7.07;;;;;;;;;;5001544;28;20213;-75
2021/07/17 07:14:50;;;;;;;10.15;6.63;;;;;;;;;;5012284;28;20292;-75
2021/07/17 07:17:17;;;;;;;12.27;7.00;;;;;;;;;;5011292;28;20288;-76
2021/07/17 07:19:45;;;;;;;9.15;7.03;;;;;;;;;;5012037;28;20224;-75
2021/07/17 07:22:13;;;;;;;10.05;6.00;;;;;;;;;;5011912;28;20236;-75
2021/07/17 07:24:40;;;;;;;9.65;6.50;;;;;;;;;;5008506;28;20613;-75
2021/07/17 07:27:08;;;;;;;9.82;5.88;;;;;;;;;;5007529;28;20287;-75
2021/07/17 07:29:35;;;;;;;9.75;5.22;;;;;;;;;;5010822;28;20229;-75
2021/07/17 07:32:02;;;;;;;7.28;5.00;;;;;;;;;;5010831;28;20205;-75
2021/07/17 07:34:30;;;;;;;8.75;4.97;;;;;;;;;;5010810;28;20201;-75
2021/07/17 07:36:57;;;;;;;7.78;4.97;;;;;;;;;;5006484;28;20629;-75
2021/07/17 07:39:25;;;;;;;7.78;4.72;;;;;;;;;;5001264;28;20304;-77
2021/07/17 07:41:53;;;;;;;8.25;4.78;;;;;;;;;;5006831;28;20239;-75
2021/07/17 07:44:20;;;;;;;9.27;5.50;;;;;;;;;;5007268;28;20247;-75
2021/07/17 07:46:47;;;;;;;8.05;4.75;;;;;;;;;;5006026;28;20293;-75
2021/07/17 07:49:14;;;;;;;7.85;4.60;;;;;;;;;;5014426;28;20617;-75
2021/07/17 07:51:41;;;;;;;10.80;5.10;;;;;;;;;;5013677;28;20228;-75
2021/07/17 07:54:08;;;;;;;9.82;5.30;;;;;;;;;;5000716;28;20309;-75
2021/07/17 07:56:37;;;;;;;7.25;4.82;;;;;;;;;;5006532;28;20233;-75
2021/07/17 07:59:04;;;;;;;6.35;4.40;;;;;;;;;;5007648;28;20308;-75
2021/07/17 08:01:32;;;;;;;6.85;4.43;;;;;;;;;;5010223;28;20291;-74
2021/07/17 08:03:59;;;;;;;7.28;4.05;;;;;;;;;;5011524;28;20239;-75
2021/07/17 08:06:27;;;;;;;7.38;4.13;;;;;;;;;;5013269;28;20309;-76
2021/07/17 08:08:54;;;;;;;6.57;4.32;;;;;;;;;;5014169;28;20229;-75
2021/07/17 08:11:21;;;;;;;6.20;4.20;;;;;;;;;;5014290;28;20307;-75
2021/07/17 08:13:50;;;;;;;7.75;4.43;;;;;;;;;;5009138;28;20308;-74
2021/07/17 08:16:17;;;;;;;7.72;4.18;;;;;;;;;;5012295;28;20567;-75
2021/07/17 08:18:44;;;;;;;6.97;4.20;;;;;;;;;;5012946;28;20296;-75
2021/07/17 08:21:11;;;;;;;6.05;4.30;;;;;;;;;;5013065;28;20232;-75
2021/07/17 08:23:38;;;;;;;5.20;3.60;;;;;;;;;;5005882;28;20240;-75
2021/07/17 08:26:06;;;;;;;6.97;4.10;;;;;;;;;;5014346;28;20240;-75
2021/07/17 08:28:33;;;;;;;8.45;4.00;;;;;;;;;;5010881;28;20300;-76
2021/07/17 08:31:02;;;;;;;5.15;4.00;;;;;;;;;;5013912;28;20288;-75
2021/07/17 08:33:29;;;;;;;7.57;4.20;;;;;;;;;;5014013;28;20634;-75
2021/07/17 08:35:56;;;;;;;8.25;4.15;;;;;;;;;;5005481;28;20284;-75
2021/07/17 08:38:23;;;;;;;5.45;4.00;;;;;;;;;;5014251;28;20308;-75
2021/07/17 08:40:52;;;;;;;7.55;4.03;;;;;;;;;;5014355;28;20256;-74
2021/07/17 08:43:20;;;;;;;8.25;4.13;;;;;;;;;;5014473;28;20271;-75
2021/07/17 08:45:48;;;;;;;6.00;3.80;;;;;;;;;;5014417;28;20288;-75
2021/07/17 08:48:20;;;;;;;8.45;4.45;;;;;;;;;;5014250;28;20197;-75
2021/07/17 08:50:48;;;;;;;6.18;4.07;;;;;;;;;;5009037;28;20197;-75
2021/07/17 08:53:16;;;;;;;5.05;3.70;;;;;;;;;;5013845;28;20304;-76
2021/07/17 08:55:44;;;;;;;5.53;4.07;;;;;;;;;;5013182;28;20284;-75
2021/07/17 08:58:12;;;;;;;8.60;4.07;;;;;;;;;;5013597;28;20288;-75
2021/07/17 09:00:39;;;;;;;8.05;4.28;;;;;;;;;;4996401;28;20276;-75
2021/07/17 09:03:08;;;;;;;6.65;3.88;;;;;;;;;;5000023;28;20935;-75
2021/07/17 09:05:42;;;;;;;6.22;4.15;;;;;;;;;;5003790;28;20205;-75
2021/07/17 09:08:09;;;;;;;5.07;3.75;;;;;;;;;;5003278;28;20234;-75
2021/07/17 09:10:38;;;;;;;6.03;4.38;;;;;;;;;;4994201;28;20204;-76
2021/07/17 09:13:09;;;;;;;4.93;3.92;;;;;;;;;;4997154;28;20201;-76
2021/07/17 09:15:38;;;;;;;6.53;4.00;;;;;;;;;;4994883;28;20284;-75
2021/07/17 09:18:05;;;;;;;6.13;4.03;;;;;;;;;;4994270;28;20309;-75
2021/07/17 09:20:32;;;;;;;5.82;4.07;;;;;;;;;;4994860;28;20309;-75
2021/07/17 09:23:01;;;;;;;6.43;4.60;;;;;;;;;;4998025;28;20662;-76
2021/07/17 09:25:36;;;;;;;5.88;4.15;;;;;;;;;;4999135;28;20235;-76
2021/07/17 09:28:17;;;;;;;6.32;4.32;;;;;;;;;;5013015;28;20212;-75
2021/07/17 09:30:44;;;;;;;6.15;3.95;;;;;;;;;;5013433;28;20220;-75
2021/07/17 09:33:12;;;;;;;8.10;4.15;;;;;;;;;;5012735;28;20205;-76
2021/07/17 09:35:40;;;;;;;6.07;3.97;;;;;;;;;;5012743;28;20201;-76
2021/07/17 09:38:09;;;;;;;5.75;4.28;;;;;;;;;;5009974;28;20293;-76
2021/07/17 09:40:43;;;;;;;5.20;4.60;;;;;;;;;;4993491;28;20749;-76
2021/07/17 09:43:10;;;;;;;5.50;4.10;;;;;;;;;;4996757;28;20743;-75
2021/07/17 09:45:38;;;;;;;5.07;4.20;;;;;;;;;;5008216;28;20252;-76
2021/07/17 09:48:23;;;;;;;8.00;4.32;;;;;;;;;;5013160;28;20247;-76
2021/07/17 09:50:51;;;;;;;6.05;4.53;;;;;;;;;;5009678;28;20276;-77
2021/07/17 09:53:33;;;;;;;5.78;4.50;;;;;;;;;;5001244;28;20232;-76
2021/07/17 09:56:07;;;;;;;6.72;4.93;;;;;;;;;;5005677;28;20292;-76
2021/07/17 09:58:34;;;;;;;7.78;5.45;;;;;;;;;;4993362;28;20201;-76
2021/07/17 10:01:22;;;;;;;7.25;4.78;;;;;;;;;;4993155;28;20678;-77
2021/07/17 10:03:50;;;;;;;8.23;4.80;;;;;;;;;;4993326;28;20201;-77
2021/07/17 10:06:30;;;;;;;6.22;4.50;;;;;;;;;;4993095;28;20293;-76
2021/07/17 10:08:57;;;;;;;7.78;4.85;;;;;;;;;;4996975;28;20731;-76
2021/07/17 10:11:26;;;;;;;8.07;5.03;;;;;;;;;;4993110;28;20289;-76
2021/07/17 10:13:54;;;;;;;7.20;5.20;;;;;;;;;;4993264;28;20646;-77
2021/07/17 10:16:22;;;;;;;6.22;5.22;;;;;;;;;;4995812;28;20198;-76
2021/07/17 10:18:50;;;;;;;5.32;4.43;;;;;;;;;;5004929;28;20288;-77
2021/07/17 10:21:17;;;;;;;8.43;4.75;;;;;;;;;;5012280;28;20316;-77
2021/07/17 10:23:45;;;;;;;7.13;5.05;;;;;;;;;;4994986;28;20288;-78
2021/07/17 10:26:12;;;;;;;5.43;4.53;;;;;;;;;;5004058;28;20233;-77
2021/07/17 10:28:41;;;;;;;7.00;5.45;;;;;;;;;;4996436;28;20782;-76
2021/07/17 10:31:08;;;;;;;5.95;4.47;;;;;;;;;;5011349;28;20288;-76
2021/07/17 10:33:37;;;;;;;7.28;5.15;;;;;;;;;;5004999;28;20285;-75
2021/07/17 10:36:08;;;;;;;6.97;5.28;;;;;;;;;;5000328;28;20316;-76
2021/07/17 10:38:36;;;;;;;6.70;5.25;;;;;;;;;;5012559;28;20197;-76
2021/07/17 10:41:03;;;;;;;7.53;5.43;;;;;;;;;;4997320;28;20650;-77
2021/07/17 10:43:30;;;;;;;6.53;5.13;;;;;;;;;;5012309;28;20371;-76
2021/07/17 10:45:59;;;;;;;5.95;5.32;;;;;;;;;;4999892;28;20234;-76
2021/07/17 10:48:27;;;;;;;7.60;5.63;;;;;;;;;;4992421;28;20233;-77
2021/07/17 10:50:55;;;;;;;5.90;4.80;;;;;;;;;;4992430;28;20692;-76
2021/07/17 10:53:41;;;;;;;8.90;5.55;;;;;;;;;;4992550;28;20610;-77
2021/07/17 10:56:23;;;;;;;7.65;5.00;;;;;;;;;;5002251;28;20755;-77
2021/07/17 10:58:50;;;;;;;8.45;6.38;;;;;;;;;;4992122;28;20330;-78
2021/07/17 11:01:19;;;;;;;6.93;5.60;;;;;;;;;;4996859;28;20304;-78
2021/07/17 11:03:46;;;;;;;7.78;5.60;;;;;;;;;;5012071;28;20209;-77
2021/07/17 11:06:24;;;;;;;10.00;5.90;;;;;;;;;;5010480;28;20297;-78
2021/07/17 11:08:51;;;;;;;7.00;5.90;;;;;;;;;;4996117;28;20228;-77
2021/07/17 11:11:37;;;;;;;8.05;5.85;;;;;;;;;;5023738;28;20216;-77
2021/07/17 11:14:24;;;;;;;10.43;5.07;;;;;;;;;;5019324;28;20304;-77
2021/07/17 11:16:53;;;;;;;5.28;4.78;;;;;;;;;;5008196;28;20275;-78
2021/07/17 11:19:24;;;;;;;6.93;5.25;;;;;;;;;;5009588;28;20616;-77
2021/07/17 11:21:51;;;;;;;6.63;5.10;;;;;;;;;;5010792;28;20282;-77
2021/07/17 11:24:20;;;;;;;5.93;4.57;;;;;;;;;;4993188;28;20677;-76
2021/07/17 11:27:07;;;;;;;6.63;5.05;;;;;;;;;;5006832;28;20205;-77
2021/07/17 11:29:39;;;;;;;8.65;4.82;;;;;;;;;;5001254;28;20295;-77
2021/07/17 11:32:11;;;;;;;7.13;4.95;;;;;;;;;;5002837;28;20202;-77
2021/07/17 11:34:46;;;;;;;6.22;5.15;;;;;;;;;;4992473;28;20241;-77
2021/07/17 11:37:24;;;;;;;9.10;5.38;;;;;;;;;;5007839;28;20240;-77
2021/07/17 11:39:53;;;;;;;7.00;5.78;;;;;;;;;;5003619;28;20281;-76
2021/07/17 11:42:21;;;;;;;8.18;5.57;;;;;;;;;;4992197;28;20237;-77
2021/07/17 11:44:50;;;;;;;7.65;5.43;;;;;;;;;;4992196;28;20209;-77
2021/07/17 11:47:19;;;;;;;7.10;5.57;;;;;;;;;;4991897;28;20206;-77
2021/07/17 11:49:47;;;;;;;6.10;5.50;;;;;;;;;;4992190;28;20233;-76
2021/07/17 11:52:16;;;;;;;6.68;5.10;;;;;;;;;;4995124;28;20239;-78
2021/07/17 11:54:45;;;;;;;5.97;5.47;;;;;;;;;;5005647;28;20201;-76
2021/07/17 11:57:13;;;;;;;7.03;5.68;;;;;;;;;;5007477;28;20236;-77
2021/07/17 11:59:41;;;;;;;7.35;5.57;;;;;;;;;;5010923;28;20251;-77
2021/07/17 12:02:10;;;;;;;6.82;5.85;;;;;;;;;;5008274;28;20224;-77
2021/07/17 12:04:40;;;;;;;7.35;5.28;;;;;;;;;;5009081;28;20225;-77
2021/07/17 12:07:12;;;;;;;8.27;6.30;;;;;;;;;;5003047;28;20197;-77
2021/07/17 12:09:43;;;;;;;8.13;5.72;;;;;;;;;;5000284;28;20237;-76
2021/07/17 12:12:20;;;;;;;8.77;5.53;;;;;;;;;;5005673;28;20212;-77
2021/07/17 12:14:49;;;;;;;8.48;5.57;;;;;;;;;;5009705;28;20286;-76
2021/07/17 12:17:23;;;;;;;7.35;5.70;;;;;;;;;;4999631;28;20206;-76
2021/07/17 12:20:01;;;;;;;7.78;5.72;;;;;;;;;;4997946;28;20201;-77
2021/07/17 12:22:29;;;;;;;7.53;5.85;;;;;;;;;;5006908;28;20289;-77
2021/07/17 12:25:07;;;;;;;6.75;5.78;;;;;;;;;;4997646;28;20241;-76
2021/07/17 12:27:49;;;;;;;10.50;6.30;;;;;;;;;;4995435;28;20284;-77
2021/07/17 12:30:16;;;;;;;6.82;5.63;;;;;;;;;;4995124;28;20313;-77
2021/07/17 12:32:43;;;;;;;8.95;6.25;;;;;;;;;;4995029;28;20233;-76
2021/07/17 12:35:12;;;;;;;8.77;6.05;;;;;;;;;;4998431;28;20672;-78
2021/07/17 12:37:41;;;;;;;7.97;5.75;;;;;;;;;;5014646;28;20225;-79
2021/07/17 12:40:09;;;;;;;8.55;6.18;;;;;;;;;;5014683;28;20284;-80
2021/07/17 12:42:43;;;;;;;8.23;6.10;;;;;;;;;;5014530;28;20288;-80
2021/07/17 12:45:15;;;;;;;8.70;5.85;;;;;;;;;;5014542;28;20232;-80
2021/07/17 12:47:47;;;;;;;10.00;6.40;;;;;;;;;;5014645;28;20385;-80
2021/07/17 12:50:19;;;;;;;6.18;5.57;;;;;;;;;;5004739;28;20775;-79
2021/07/17 12:52:47;;;;;;;7.10;5.95;;;;;;;;;;4995209;28;20246;-78
2021/07/17 12:55:14;;;;;;;6.00;5.40;;;;;;;;;;4997183;28;20212;-78
2021/07/17 12:57:41;;;;;;;6.30;5.70;;;;;;;;;;5009286;28;20611;-78
2021/07/17 13:00:09;;;;;;;6.82;5.78;;;;;;;;;;5011334;28;20707;-79
2021/07/17 13:02:37;;;;;;;6.15;5.47;;;;;;;;;;5002672;28;20230;-78
2021/07/17 13:05:04;;;;;;;7.60;5.68;;;;;;;;;;5013606;28;20290;-78
2021/07/17 13:07:35;;;;;;;8.30;5.97;;;;;;;;;;5008333;28;20285;-78
2021/07/17 13:10:02;;;;;;;8.57;5.43;;;;;;;;;;4994495;28;20329;-81
2021/07/17 13:12:30;;;;;;;6.72;5.90;;;;;;;;;;5001754;28;20283;-79
2021/07/17 13:14:57;;;;;;;8.75;6.15;;;;;;;;;;5008283;28;20291;-78
2021/07/17 13:17:25;;;;;;;9.00;5.95;;;;;;;;;;5014444;28;20300;-78
2021/07/17 13:20:01;;;;;;;6.35;5.70;;;;;;;;;;5014648;28;20263;-78
2021/07/17 13:22:37;;;;;;;7.15;5.80;;;;;;;;;;5013643;28;20560;-79
2021/07/17 13:25:14;;;;;;;7.28;6.10;;;;;;;;;;5014048;28;20352;-79
2021/07/17 13:27:41;;;;;;;7.05;5.80;;;;;;;;;;5014422;28;20284;-79
2021/07/17 13:30:09;;;;;;;6.47;5.88;;;;;;;;;;5013485;28;20297;-79
2021/07/17 13:32:38;;;;;;;7.00;6.07;;;;;;;;;;5014099;28;20267;-79
2021/07/17 13:35:16;;;;;;;7.95;5.40;;;;;;;;;;5008329;28;20237;-79
2021/07/17 13:37:45;;;;;;;6.57;5.90;;;;;;;;;;4993670;28;20288;-79
2021/07/17 13:40:13;;;;;;;7.18;6.05;;;;;;;;;;5007519;28;20288;-79
2021/07/17 13:42:40;;;;;;;7.03;5.95;;;;;;;;;;5012317;28;20237;-79
2021/07/17 13:45:08;;;;;;;8.40;5.70;;;;;;;;;;5013411;28;20243;-78
2021/07/17 13:47:36;;;;;;;8.48;5.80;;;;;;;;;;5013706;28;20639;-78
2021/07/17 13:50:03;;;;;;;7.50;5.53;;;;;;;;;;5011405;28;20229;-80
2021/07/17 13:52:32;;;;;;;7.28;5.80;;;;;;;;;;5010082;28;20259;-81
2021/07/17 13:55:01;;;;;;;7.78;6.00;;;;;;;;;;5013137;28;20564;-79
2021/07/17 13:57:34;;;;;;;6.68;5.63;;;;;;;;;;5013029;28;20657;-78
2021/07/17 14:00:02;;;;;;;8.05;5.63;;;;;;;;;;5013463;28;20295;-78
2021/07/17 14:02:29;;;;;;;9.40;6.10;;;;;;;;;;5013369;28;20292;-79
2021/07/17 14:04:57;;;;;;;7.68;5.75;;;;;;;;;;5013487;28;20303;-78
2021/07/17 14:07:24;;;;;;;8.05;5.88;;;;;;;;;;4999569;28;20292;-78
2021/07/17 14:09:53;;;;;;;7.18;6.00;;;;;;;;;;5012212;28;20752;-79
2021/07/17 14:12:25;;;;;;;6.65;5.38;;;;;;;;;;5012095;28;20315;-78
2021/07/17 14:14:53;;;;;;;6.35;5.68;;;;;;;;;;5012345;28;20209;-78
2021/07/17 14:17:20;;;;;;;6.35;5.80;;;;;;;;;;5001930;28;20591;-78
2021/07/17 14:19:47;;;;;;;7.55;5.70;;;;;;;;;;4997246;28;20623;-78
2021/07/17 14:22:15;;;;;;;6.97;5.68;;;;;;;;;;5009425;28;20589;-79
2021/07/17 14:24:42;;;;;;;6.75;5.97;;;;;;;;;;5006695;28;20937;-78
2021/07/17 14:27:09;;;;;;;7.10;6.10;;;;;;;;;;4998069;28;20288;-79
2021/07/17 14:29:38;;;;;;;7.35;5.78;;;;;;;;;;4996417;28;20284;-78
2021/07/17 14:32:06;;;;;;;5.90;5.30;;;;;;;;;;5012384;28;20228;-79
2021/07/17 14:34:33;;;;;;;6.63;5.45;;;;;;;;;;5012566;28;20287;-78
2021/07/17 14:37:00;;;;;;;6.90;5.63;;;;;;;;;;5007182;28;20236;-78
2021/07/17 14:39:28;;;;;;;6.72;6.03;;;;;;;;;;5001363;28;20633;-79
2021/07/17 14:41:55;;;;;;;7.25;5.60;;;;;;;;;;5011994;28;20259;-78